Hogeland, Montana
Current Conditions -  °F | °C
As of 4:53 PM on Monday 20 Oct 2014 (Local Time) from KHVR Reporting Station
Clear Clear  
Wind Chill: 76°   Ceiling: Unl
Heat Index: 76°   Visibility: 10mi
Dew Point: 42°   Wind: 8mph
Humidity: 30%   Direction: 70°ENE
Pressure: 29.71"   Gusts: NA
Location:  48.85°N, 108.66°W
Report Text: KHVR 202253Z AUTO 07007KT 10SM CLR 24/06 A2971 RMK AO2 SLP058 T02440056
Loading
Personal Weather Stations






























Interactive Weather Map
Tropical Storm Tracking
New forecast layout! Learn more

10-Day Weather Forecast

Advertisements
Track Severe Weather on mobile